Annapolis, MO

11:40 PM CDT on July 28, 2014 (GMT -0500)
TurtleCreekFarm (KMOBISMA2) Elev 1040 ft | 37.77 °N, 90.58 °W | Change Station

Current weather conditions updated 4 minutes ago

Clear
Clear
56.9 °F
Feels Like 56.9 °F
N
0.0
Wind Variable Wind from NE
Gusts 0.0 mph

Tomorrow is forecast to be nearly the same temperature as today.

Today
High -- | Low -- °F
--% Chance of Precip.
Yesterday
High -- | Low -- °F
Precip. -- in
6:03 AM 8:14 PM
Waxing Crescent, 5% visible
Pressure 30.15 in
Visibility 10.0 miles
Clouds Clear
Dew Point 54 °F
Humidity 90%
Rainfall 0.00 in
Snow Depth Not available.
UV 0 out of 12
Pollen 7.30 out of 12
Air Quality Not available.
Flu Activity Not available.
METAR KFAM 290435Z AUTO 34003KT 10SM CLR 18/12 A3015 RMK AO1

More Conditions Fewer Conditions

Pressure 30.15 in
Visibility 10.0 miles
Clouds Clear
Dew Point 54 °F
Humidity 90%
Rainfall 0.00 in
Snow Depth Not available.
UV 0 out of 12
Pollen 7.30 out of 12
Air Quality Not available.
Flu Activity Not available.
METAR KFAM 290435Z AUTO 34003KT 10SM CLR 18/12 A3015 RMK AO1

More Conditions Fewer Conditions

10-Day Weather Forecast

Almanac

Astronomy

Jul. 28, 2014 Rise Set
Actual Time 6:03 AM CDT 8:14 PM CDT
Civil Twilight 5:34 AM CDT 8:43 PM CDT
Nautical Twilight 4:58 AM CDT 9:19 PM CDT
Astronomical Twilight 4:19 AM CDT 9:57 PM CDT
Moon 7:42 AM CDT (7/28) 8:59 PM CDT (7/28)
Length of Visible Light 15h 08m
Length of Day
14h 10m
Tomorrow will be 1m 42s shorter.
Waxing Crescent, 5% of the Moon is Illuminated
Jul 29
Waxing Crescent
Aug 3
First Quarter
Aug 10
Full
Aug 17
Last Quarter
Aug 25
New

Yesterday's Extremes

State Highs State Lows

Community

WunderPhotos

Upload Photos

1,738,634 photos uploaded!

Nearby

Snow Depth

Station Depth Elevation
No new snow has been reported.

Earthquake Activity

City Distance Mag. Time & Date
No recent earthquake activity has been reported nearby.
Minimum magnitude displayed is 2.5.

Coastal Water Temperatures

Place Temperature
No Stations Reporting

Nearby Weather Stations

Station Location Temp. Dew Point Humidity Wind Precip. Elev Updated Type
MesoWest GLOVRS , Glover, MO 64 °F - - North  at  - 0.00 in / hr 836 ft 10:35 PM CDT MADIS
TurtleCreekFarm, Bismarck, MO 56.9 °F 54 °F 90% NE  at  0.0 mph 0.00 in / hr 1040 ft 11:36 PM CDT Normal
Bismarck, MO 60.5 °F 55 °F 81% NNW  at  0.0 mph 0.00 in / hr 1000 ft 11:35 PM CDT Normal
RAWS PIEDMONT MO, Cascade, MO 67 °F 59 °F 76% NE  at  1 mph 0.00 in / hr 839 ft 10:30 PM CDT MADIS

Show More Stations Show Fewer Stations